Huvudsida
METAR-TAF:

METAR-TAF

Flygplatser :

Berlevågs flygplats

Berlevågs, Norge

latitud: 70-52N, longitud: 029-02E, höjd: 1 m

Aktuellt väderrapport

Denna rapport gjordes för 10 timmar och 50 minuter sedan, klockan 21:50 UTC
Vind 34 kt från syd/sydväst
Temperatur 0°C
Fuktighet 80%
Tryck 970 hPa
Sikt 10 km eller mer
lågt snödrev

METAR: ENBV 212150Z 20034KT 9999 DRSN NSC 00/M03 Q0970

Tid: 09:40 (08:40 UTC)

Väderprognos

Denna rapport gjordes för 21 timmar och 40 minuter sedan, klockan 11:00 UTC
Prognos gäller från 21 kl. 12 UTC till 21 kl. 21 UTC
Vind 20 kt från syd/sydväst
Sikt 10 km eller mer
Spridda moln på en höjd av 2000 ft
Brutna moln på en höjd av 4000 ft
lågt snödrev
Temporärt
från 21 kl. 12 UTC till 21 kl. 21 UTC
Vind 30 kt från syd/sydväst
högt snödrev

TAF: ENBV 211100Z 2112/2121 20020KT 9999 DRSN SCT020 BKN040 TEMPO 2112/2121 20030KT BLSN

Aktuella väderrapporter och prognoser från 4000 flygplatser (METAR- och TAF-rapporter).

De tillgängliga stationerna syns som gula och röda prickar på kartan.

För musen över prickarna för att se namnen på stationerna.

Klicka sedan för att få väderrapporter och prognoser.

För att ändra kartan: Klicka på de gröna knapparna med ett svart kors på för att zooma in; den gröna knappen med ett streck på för att zooma ut; eller på de gröna pilarna för angränsande kartor.


METAR-TAF: